createdAt,value
2022-10-11T03:55:54.279Z,1.00
2022-10-11T03:58:56.601Z,1.90
2022-10-11T04:01:58.778Z,1.42
2022-10-11T04:05:01.769Z,1.85
2022-10-11T04:08:06.319Z,1.67
2022-10-11T04:11:12.413Z,1.73
2022-10-11T04:14:14.597Z,1.92
2022-10-11T04:17:17.267Z,1.40
2022-10-11T04:20:19.384Z,2.17
2022-10-11T04:23:21.665Z,2.45
2022-10-11T04:26:24.414Z,1.95
2022-10-11T04:29:32.162Z,1.98
2022-10-11T04:32:34.834Z,2.08
2022-10-11T04:35:37.424Z,1.25
2022-10-11T04:38:39.550Z,1.45
2022-10-11T04:41:41.846Z,1.55
2022-10-11T04:44:43.869Z,1.60
2022-10-11T04:47:46.778Z,2.72
2022-10-11T04:50:48.789Z,1.27
2022-10-11T04:53:51.962Z,1.98
2022-10-11T04:56:54.033Z,2.00
2022-10-11T04:59:56.327Z,2.00
2022-10-11T05:02:58.578Z,1.52
2022-10-11T05:06:05.230Z,2.22
2022-10-11T05:09:08.127Z,1.60
2022-10-11T05:12:10.445Z,1.60
2022-10-11T05:15:12.476Z,1.70
2022-10-11T05:18:14.759Z,1.65
2022-10-11T05:21:28.828Z,1.85
2022-10-11T05:24:31.323Z,1.77
2022-10-11T05:27:33.346Z,1.48
2022-10-11T05:30:35.669Z,1.83
2022-10-11T05:33:38.669Z,2.15
2022-10-11T05:36:40.982Z,2.15
2022-10-11T05:39:43.029Z,2.10
2022-10-11T05:42:45.325Z,2.60
2022-10-11T05:45:47.381Z,1.20
2022-10-11T05:48:49.697Z,2.22
2022-10-11T05:51:51.738Z,2.35
2022-10-11T05:54:54.028Z,1.60
2022-10-11T05:57:57.724Z,2.28
2022-10-11T06:01:00.101Z,1.50
2022-10-11T06:04:02.628Z,2.17
2022-10-11T06:07:05.662Z,1.75
2022-10-11T06:10:08.928Z,2.15
2022-10-11T06:13:10.968Z,1.83
2022-10-11T06:16:13.630Z,1.62
2022-10-11T06:19:15.670Z,1.80
2022-10-11T06:22:18.535Z,2.12
2022-10-11T06:25:20.879Z,1.90
2022-10-11T06:28:23.258Z,1.60
2022-10-11T06:31:25.396Z,1.37
2022-10-11T06:34:28.432Z,1.55
2022-10-11T06:37:30.458Z,1.80
2022-10-11T06:40:32.783Z,1.27
2022-10-11T06:43:34.868Z,1.40
2022-10-11T06:46:37.927Z,1.73
2022-10-11T06:49:39.962Z,2.05
2022-10-11T06:52:42.262Z,1.35
2022-10-11T06:55:44.305Z,1.25
2022-10-11T06:58:47.241Z,2.53
2022-10-11T07:01:49.383Z,1.52
2022-10-11T07:04:51.691Z,1.95
2022-10-11T07:07:53.810Z,2.10
2022-10-11T07:11:07.971Z,1.40
2022-10-11T07:14:10.254Z,0.77
2022-10-11T07:17:12.548Z,1.50
2022-10-11T07:20:14.721Z,1.77
2022-10-11T07:23:17.263Z,1.23
2022-10-11T07:26:19.931Z,2.95
2022-10-11T07:29:22.233Z,1.77
2022-10-11T07:32:24.316Z,1.65
2022-10-11T07:35:26.755Z,1.33
2022-10-11T07:38:28.967Z,1.58
2022-10-11T07:41:31.382Z,1.35
2022-10-11T07:44:34.205Z,1.87
2022-10-11T07:47:36.489Z,1.58
2022-10-11T07:50:38.547Z,1.25
2022-10-11T07:53:47.005Z,2.08
2022-10-11T07:56:49.101Z,1.42
2022-10-11T07:59:51.531Z,2.00
2022-10-11T08:02:53.575Z,1.33
2022-10-11T08:06:00.501Z,1.85
2022-10-11T08:09:03.201Z,1.20
2022-10-11T08:12:05.581Z,2.03
2022-10-11T08:15:07.946Z,1.98
2022-10-11T08:18:10.263Z,2.25
2022-10-11T08:21:14.891Z,2.10
2022-10-11T08:24:20.690Z,1.85
2022-10-11T08:27:22.758Z,2.65
2022-10-11T08:30:25.117Z,2.05
2022-10-11T08:33:27.505Z,2.95
2022-10-11T08:36:29.799Z,2.65
2022-10-11T08:39:32.208Z,2.87
2022-10-11T08:42:44.498Z,2.20
2022-10-11T08:45:50.859Z,2.35
2022-10-11T08:48:54.262Z,2.27
2022-10-11T08:52:02.532Z,2.10
2022-10-11T08:55:15.194Z,2.92
2022-10-11T08:58:21.626Z,2.15
2022-10-11T09:01:26.494Z,3.40
2022-10-11T09:04:29.165Z,3.28
2022-10-11T09:07:47.766Z,2.72
2022-10-11T09:11:26.850Z,2.25
2022-10-11T09:14:38.805Z,2.17
2022-10-11T09:18:04.188Z,2.53
2022-10-11T09:21:39.907Z,3.20
2022-10-11T09:25:06.724Z,1.90
2022-10-11T09:28:42.928Z,2.83
2022-10-11T09:31:54.701Z,2.50
2022-10-11T09:35:09.741Z,2.45
2022-10-11T09:38:18.020Z,3.20
2022-10-11T09:41:36.691Z,3.37
2022-10-11T09:44:50.133Z,3.28
2022-10-11T09:47:55.912Z,3.00
2022-10-11T09:51:11.243Z,3.60
2022-10-11T09:54:13.560Z,3.67
2022-10-11T09:57:34.073Z,3.65
2022-10-11T10:00:36.446Z,3.40
2022-10-11T10:03:42.122Z,3.50
2022-10-11T10:06:44.222Z,3.35
2022-10-11T10:09:46.817Z,2.85
2022-10-11T10:12:54.706Z,3.47
2022-10-11T10:16:01.191Z,4.32
2022-10-11T10:19:17.690Z,3.92
2022-10-11T10:22:34.421Z,3.83
2022-10-11T10:25:43.069Z,4.60
2022-10-11T10:29:16.575Z,3.42
2022-10-11T10:32:28.144Z,4.37
2022-10-11T10:35:32.281Z,3.75
2022-10-11T10:38:52.030Z,3.92
2022-10-11T10:41:55.885Z,4.28
2022-10-11T10:44:59.425Z,4.20
2022-10-11T10:48:53.748Z,4.45
2022-10-11T10:52:05.407Z,3.35
2022-10-11T10:55:23.548Z,4.43
2022-10-11T10:58:40.986Z,4.10
2022-10-11T11:05:46.585Z,3.12
2022-10-11T11:09:02.826Z,3.17
2022-10-11T11:12:26.265Z,4.35
2022-10-11T11:15:43.395Z,4.15
2022-10-11T11:19:18.675Z,3.70
2022-10-11T11:22:39.513Z,4.10
2022-10-11T11:25:44.816Z,3.75
2022-10-11T11:29:00.094Z,3.70
2022-10-11T11:32:17.216Z,3.72
2022-10-11T11:35:33.479Z,4.20
2022-10-11T11:38:51.176Z,3.80
2022-10-11T11:41:59.657Z,3.90
2022-10-11T11:45:12.901Z,3.60
2022-10-11T11:48:20.733Z,3.80
2022-10-11T11:51:31.565Z,4.40
2022-10-11T11:55:04.299Z,4.10
2022-10-11T11:58:27.727Z,3.70
2022-10-11T12:01:57.696Z,3.53
2022-10-11T12:05:00.657Z,4.37
2022-10-11T12:08:08.416Z,4.40
2022-10-11T12:11:31.679Z,5.00
2022-10-11T12:14:40.127Z,3.95
2022-10-11T12:17:57.646Z,4.45
2022-10-11T12:21:07.239Z,4.10
2022-10-11T12:24:15.467Z,3.90
2022-10-11T12:27:40.982Z,4.12
2022-10-11T12:31:03.975Z,4.00
2022-10-11T12:34:09.220Z,4.07
2022-10-11T12:37:20.375Z,4.00
2022-10-11T12:40:42.301Z,4.90
2022-10-11T12:43:50.457Z,3.78
2022-10-11T12:46:55.116Z,4.87
2022-10-11T12:50:25.974Z,4.03
2022-10-11T12:54:07.915Z,4.12
2022-10-11T12:57:46.178Z,5.55
2022-10-11T13:00:51.752Z,3.85
2022-10-11T13:04:05.617Z,4.65
2022-10-11T13:07:15.363Z,4.40
2022-10-11T13:10:24.857Z,4.25
2022-10-11T13:13:39.445Z,4.95
2022-10-11T13:16:50.634Z,4.87
2022-10-11T13:20:01.597Z,4.10
2022-10-11T13:23:03.919Z,4.40
2022-10-11T13:26:05.984Z,4.40
2022-10-11T13:29:17.224Z,3.53
2022-10-11T13:32:26.274Z,3.70
2022-10-11T13:35:37.390Z,4.57
2022-10-11T13:38:40.640Z,4.20
2022-10-11T13:41:43.407Z,4.75
2022-10-11T13:44:47.065Z,4.35
2022-10-11T13:47:51.009Z,3.95
2022-10-11T13:51:06.013Z,4.10
2022-10-11T13:54:13.482Z,4.07
2022-10-11T13:57:15.963Z,3.90
2022-10-11T14:00:22.574Z,4.62
2022-10-11T14:03:37.408Z,4.50
2022-10-11T14:06:52.204Z,3.35
2022-10-11T14:09:55.734Z,3.87
2022-10-11T14:13:24.293Z,4.85
2022-10-11T14:16:26.501Z,3.92
2022-10-11T14:19:28.555Z,3.70
2022-10-11T14:22:31.032Z,5.20
2022-10-11T14:25:33.719Z,3.75
2022-10-11T14:28:49.504Z,3.87
2022-10-11T14:31:56.267Z,4.55
2022-10-11T14:34:59.145Z,4.03
2022-10-11T14:38:01.197Z,4.18
2022-10-11T14:41:03.766Z,4.15
2022-10-11T14:44:05.810Z,3.65
2022-10-11T14:47:08.692Z,3.85
2022-10-11T14:50:28.992Z,4.75
2022-10-11T14:53:31.302Z,2.97
2022-10-11T14:56:33.418Z,4.35
2022-10-11T14:59:37.674Z,3.53
2022-10-11T15:02:39.694Z,3.87
2022-10-11T15:05:42.345Z,3.60
2022-10-11T15:08:44.485Z,3.17
2022-10-11T15:11:48.804Z,3.30
2022-10-11T15:14:50.833Z,3.53
2022-10-11T15:17:55.906Z,3.45
2022-10-11T15:20:58.537Z,4.35
2022-10-11T15:24:00.861Z,2.92
2022-10-11T15:27:02.975Z,4.00
2022-10-11T15:30:17.878Z,3.92
2022-10-11T15:33:20.157Z,3.87
